Time;durP1;ratioP1;P1;durP2;ratioP2;P2;SDS_P1;SDS_P2;PMS_P1;PMS_P2;Temp;Humidity;BMP_temperature;BMP_pressure;BME280_temperature;BME280_humidity;BME280_pressure;Samples;Min_cycle;Max_cycle;Signal;HPM_P1;HPM_P2
2021/12/01 00:00:05;;;;;;;1.10;0.60;;;;;;;8.11;77.03;99966.34;5029024;28;20902;-66
2021/12/01 00:02:33;;;;;;;1.03;0.60;;;;;;;8.20;76.74;99956.72;5029363;28;20204;-66
2021/12/01 00:05:01;;;;;;;2.40;0.80;;;;;;;8.22;76.71;99970.63;5029216;28;20219;-67
2021/12/01 00:07:29;;;;;;;1.23;0.60;;;;;;;8.18;77.00;99963.97;5027543;28;20268;-66
2021/12/01 00:09:57;;;;;;;1.30;0.60;;;;;;;7.83;78.21;99939.03;5023634;28;20218;-65
2021/12/01 00:12:25;;;;;;;1.53;0.60;;;;;;;7.81;78.60;99943.66;5031003;28;20248;-67
2021/12/01 00:14:53;;;;;;;0.83;0.40;;;;;;;8.08;77.43;99949.97;5029017;28;20323;-67
2021/12/01 00:17:22;;;;;;;1.50;0.87;;;;;;;8.07;77.44;99935.94;5027855;28;20218;-66
2021/12/01 00:19:50;;;;;;;0.70;0.40;;;;;;;7.88;77.09;99926.25;5024662;28;20711;-67
2021/12/01 00:22:18;;;;;;;1.90;0.60;;;;;;;7.85;77.83;99923.91;5027814;28;20216;-67
2021/12/01 00:24:46;;;;;;;1.27;0.67;;;;;;;7.77;77.83;99917.69;5026579;28;20248;-66
2021/12/01 00:27:13;;;;;;;1.60;0.60;;;;;;;8.11;76.56;99912.69;5027214;28;20303;-67
2021/12/01 00:29:41;;;;;;;1.23;0.63;;;;;;;7.94;76.97;99930.97;5021193;28;20567;-66
2021/12/01 00:32:10;;;;;;;1.13;0.53;;;;;;;8.11;76.69;99917.97;5028324;28;20688;-67
2021/12/01 00:34:39;;;;;;;1.20;0.60;;;;;;;8.03;76.50;99912.59;5027955;28;20216;-67
2021/12/01 00:37:07;;;;;;;0.57;0.40;;;;;;;8.17;75.73;99920.88;5026538;28;21279;-67
2021/12/01 00:39:35;;;;;;;0.77;0.43;;;;;;;7.99;76.61;99932.34;5023260;28;20236;-67
2021/12/01 00:42:03;;;;;;;2.13;0.70;;;;;;;8.13;76.31;99923.94;5027958;28;20287;-66
2021/12/01 00:44:33;;;;;;;0.50;0.30;;;;;;;8.17;75.96;99926.16;5028031;28;20818;-66
2021/12/01 00:47:05;;;;;;;1.57;0.60;;;;;;;8.12;75.91;99927.56;5027370;28;20306;-67
2021/12/01 00:49:35;;;;;;;1.03;0.60;;;;;;;8.04;75.58;99919.53;5028733;28;20212;-67
2021/12/01 00:52:04;;;;;;;0.87;0.47;;;;;;;8.18;75.27;99927.78;5028876;28;20303;-67
2021/12/01 00:54:32;;;;;;;1.67;0.67;;;;;;;8.24;75.44;99915.84;5026451;28;20219;-67
2021/12/01 00:57:00;;;;;;;1.00;0.50;;;;;;;8.10;76.55;99918.94;5024692;28;20224;-66
2021/12/01 00:59:28;;;;;;;1.73;0.67;;;;;;;7.32;79.65;99901.66;5027895;28;20421;-66
2021/12/01 01:01:56;;;;;;;1.23;0.63;;;;;;;7.55;79.45;99913.59;5026343;28;20219;-66
2021/12/01 01:04:24;;;;;;;2.97;1.00;;;;;;;7.72;78.55;99904.09;5027767;28;20215;-67
2021/12/01 01:06:52;;;;;;;1.90;0.80;;;;;;;7.86;77.81;99893.06;5026360;28;20211;-67
2021/12/01 01:09:23;;;;;;;2.00;0.60;;;;;;;7.98;77.23;99893.72;5030408;28;20368;-68
2021/12/01 01:20:07;;;;;;;0.90;0.50;;;;;;;7.90;77.61;99886.53;5022367;28;20242;-66
2021/12/01 01:22:35;;;;;;;1.13;0.50;;;;;;;7.98;77.15;99869.97;5029381;28;20256;-66
2021/12/01 01:25:08;;;;;;;0.80;0.40;;;;;;;7.91;77.50;99888.19;5027437;28;20250;-67
2021/12/01 01:27:36;;;;;;;1.07;0.40;;;;;;;7.88;77.50;99883.19;5026491;28;20211;-66
2021/12/01 01:30:06;;;;;;;1.10;0.60;;;;;;;7.65;78.61;99879.25;5029402;28;20694;-66
2021/12/01 01:32:36;;;;;;;0.80;0.60;;;;;;;7.73;78.55;99884.66;5028056;28;20620;-66
2021/12/01 01:35:04;;;;;;;1.00;0.60;;;;;;;7.63;79.34;99874.13;5027608;28;20218;-66
2021/12/01 01:37:32;;;;;;;1.73;0.60;;;;;;;7.51;79.84;99876.09;5024006;28;20281;-67
2021/12/01 01:40:00;;;;;;;1.23;0.63;;;;;;;7.59;79.70;99872.72;5028293;28;20716;-67
2021/12/01 01:42:29;;;;;;;1.27;0.80;;;;;;;7.66;79.19;99868.53;5029885;28;20207;-66
2021/12/01 01:44:57;;;;;;;0.80;0.47;;;;;;;7.59;79.55;99866.63;5031178;28;20621;-66
2021/12/01 01:47:25;;;;;;;1.50;0.80;;;;;;;7.61;79.55;99854.13;5028558;28;20306;-67
2021/12/01 01:49:56;;;;;;;1.07;0.63;;;;;;;7.15;81.49;99859.22;5025243;28;20215;-65
2021/12/01 01:52:26;;;;;;;1.03;0.53;;;;;;;7.30;80.94;99856.97;5033099;28;20555;-66
2021/12/01 01:54:53;;;;;;;1.77;0.77;;;;;;;7.51;80.88;99856.78;5030692;28;20691;-66
2021/12/01 01:57:22;;;;;;;2.63;1.27;;;;;;;7.52;79.98;99843.47;5028527;28;20744;-67
2021/12/01 01:59:51;;;;;;;2.17;0.90;;;;;;;7.36;81.03;99842.41;5031822;28;20235;-66
2021/12/01 02:02:19;;;;;;;1.93;1.00;;;;;;;7.61;80.23;99848.84;5032796;28;20326;-66
2021/12/01 02:04:47;;;;;;;1.77;0.90;;;;;;;7.72;79.20;99841.59;5030167;28;20341;-66
2021/12/01 02:07:15;;;;;;;3.70;1.10;;;;;;;7.30;81.60;99837.69;5031885;28;20676;-66
2021/12/01 02:09:44;;;;;;;2.43;0.87;;;;;;;7.35;81.61;99836.28;5031459;28;20746;-66
2021/12/01 02:12:12;;;;;;;1.90;0.90;;;;;;;7.44;80.76;99832.78;5030591;28;20308;-66
2021/12/01 02:14:40;;;;;;;1.87;0.87;;;;;;;7.24;82.05;99825.91;5028619;28;20257;-66
2021/12/01 02:17:09;;;;;;;3.67;1.30;;;;;;;7.27;81.62;99819.50;5026906;28;20227;-66
2021/12/01 02:19:38;;;;;;;2.97;1.10;;;;;;;7.33;82.03;99813.66;5033063;28;20298;-66
2021/12/01 02:22:07;;;;;;;3.30;0.80;;;;;;;7.43;81.11;99814.47;5031558;28;20237;-66
2021/12/01 02:24:35;;;;;;;1.60;0.90;;;;;;;7.47;80.83;99806.13;5030496;28;20219;-66
2021/12/01 02:27:04;;;;;;;2.70;1.10;;;;;;;7.29;81.71;99807.03;5029693;28;20243;-66
2021/12/01 02:29:32;;;;;;;1.90;0.80;;;;;;;7.30;81.48;99806.06;5032277;28;20265;-66
2021/12/01 02:32:01;;;;;;;1.90;1.00;;;;;;;7.38;81.03;99801.72;5029115;28;20230;-66
2021/12/01 02:34:33;;;;;;;1.13;0.60;;;;;;;7.52;79.75;99790.69;5028241;28;20300;-66
2021/12/01 02:37:01;;;;;;;1.60;0.70;;;;;;;7.71;78.91;99786.31;5029568;28;20637;-66
2021/12/01 02:39:31;;;;;;;1.47;0.70;;;;;;;7.70;78.15;99777.56;5032840;28;20562;-66
2021/12/01 02:42:00;;;;;;;1.00;0.60;;;;;;;7.80;77.39;99769.59;5029338;28;20699;-66
2021/12/01 02:44:29;;;;;;;1.00;0.50;;;;;;;7.95;76.93;99757.56;5029806;28;20226;-66
2021/12/01 02:46:57;;;;;;;1.57;0.60;;;;;;;7.92;76.74;99748.13;5027883;28;20211;-67
2021/12/01 02:49:26;;;;;;;2.33;0.60;;;;;;;8.01;76.10;99730.53;5030678;28;20204;-65
2021/12/01 02:51:56;;;;;;;1.50;0.73;;;;;;;7.98;76.27;99735.31;5030424;28;20207;-65
2021/12/01 02:54:24;;;;;;;1.80;0.70;;;;;;;7.92;76.26;99732.28;5027878;28;20239;-65
2021/12/01 02:56:54;;;;;;;2.57;0.83;;;;;;;8.02;76.16;99720.81;5028328;28;20222;-66
2021/12/01 02:59:24;;;;;;;2.03;0.90;;;;;;;8.15;75.57;99716.00;5029529;28;20310;-65
2021/12/01 03:01:52;;;;;;;1.87;0.83;;;;;;;8.13;75.54;99705.59;5006924;28;20231;-66
2021/12/01 03:04:22;;;;;;;1.90;0.90;;;;;;;8.15;75.64;99694.88;5005263;28;20223;-66
2021/12/01 03:06:51;;;;;;;1.60;0.83;;;;;;;8.10;76.02;99699.78;5000493;28;20216;-66
2021/12/01 03:09:19;;;;;;;1.63;0.90;;;;;;;7.93;76.49;99696.97;5008865;28;20204;-66
2021/12/01 03:11:49;;;;;;;2.43;1.17;;;;;;;7.94;76.45;99682.81;5009109;28;20484;-66
2021/12/01 03:14:20;;;;;;;3.13;1.37;;;;;;;7.92;76.97;99671.56;5006840;28;20283;-66
2021/12/01 03:16:50;;;;;;;3.00;1.40;;;;;;;8.04;76.43;99673.97;5008460;28;20656;-66
2021/12/01 03:19:18;;;;;;;4.13;1.20;;;;;;;7.89;77.20;99663.97;5009605;28;20221;-66
2021/12/01 03:21:46;;;;;;;4.83;1.40;;;;;;;7.95;76.71;99667.78;4997088;28;20295;-66
2021/12/01 03:24:14;;;;;;;2.50;1.17;;;;;;;8.05;76.18;99659.81;5004490;28;20201;-66
2021/12/01 03:26:42;;;;;;;2.90;1.50;;;;;;;8.11;75.96;99651.25;5005712;28;20263;-66
2021/12/01 03:29:12;;;;;;;2.77;1.40;;;;;;;8.15;75.79;99652.63;5007797;28;20218;-66
2021/12/01 03:31:42;;;;;;;2.47;1.33;;;;;;;7.98;76.31;99656.13;4999812;28;20252;-66
2021/12/01 03:34:11;;;;;;;2.17;1.33;;;;;;;8.09;75.95;99646.13;5009908;28;20644;-66
2021/12/01 03:36:39;;;;;;;2.63;1.00;;;;;;;8.08;76.09;99635.75;5010250;28;20322;-66
2021/12/01 03:39:07;;;;;;;2.10;1.07;;;;;;;8.09;75.98;99645.34;5012209;28;20248;-67
2021/12/01 03:41:36;;;;;;;4.00;1.43;;;;;;;8.11;75.89;99640.69;5004377;28;20228;-67
2021/12/01 03:44:04;;;;;;;2.50;1.17;;;;;;;8.10;76.40;99633.75;4997516;28;20249;-67
2021/12/01 03:46:32;;;;;;;7.47;1.67;;;;;;;7.91;77.79;99630.34;4999963;28;20327;-67
2021/12/01 03:49:02;;;;;;;5.00;1.57;;;;;;;8.06;77.75;99633.25;4995553;28;20221;-67
2021/12/01 03:51:30;;;;;;;6.67;1.80;;;;;;;8.02;77.84;99625.78;5006200;28;20202;-67
2021/12/01 03:53:58;;;;;;;2.90;1.60;;;;;;;7.81;78.99;99629.56;4995242;28;20231;-67
2021/12/01 03:56:26;;;;;;;4.23;1.77;;;;;;;7.67;79.33;99624.78;5001963;28;20661;-67
2021/12/01 03:58:54;;;;;;;4.90;2.17;;;;;;;7.86;78.97;99622.03;5006473;28;20301;-67
2021/12/01 04:01:22;;;;;;;3.37;1.87;;;;;;;7.71;79.63;99614.78;5016300;28;20235;-67
2021/12/01 04:03:50;;;;;;;3.53;2.00;;;;;;;7.84;79.16;99616.06;5030570;28;20214;-66
2021/12/01 04:06:19;;;;;;;2.93;1.60;;;;;;;7.89;78.31;99605.88;5030378;28;20298;-67
2021/12/01 04:08:49;;;;;;;4.57;1.60;;;;;;;7.90;78.64;99599.63;5029641;28;20274;-67
2021/12/01 04:11:17;;;;;;;5.03;1.70;;;;;;;7.73;79.19;99594.34;5028497;28;20248;-67
2021/12/01 04:13:45;;;;;;;3.27;2.03;;;;;;;7.94;78.22;99582.50;5028068;28;20258;-67
2021/12/01 04:16:13;;;;;;;2.97;1.57;;;;;;;7.73;78.84;99558.25;5021900;28;20254;-67
2021/12/01 04:18:42;;;;;;;2.40;1.20;;;;;;;7.87;78.29;99548.94;5030965;28;20215;-66
2021/12/01 04:21:10;;;;;;;3.17;1.13;;;;;;;7.81;77.77;99545.13;5028965;28;20322;-66
2021/12/01 04:23:39;;;;;;;1.90;1.00;;;;;;;7.97;77.09;99538.28;5028212;28;20326;-66
2021/12/01 04:26:11;;;;;;;2.20;1.13;;;;;;;7.86;76.66;99524.34;5027635;28;20746;-67
2021/12/01 04:28:39;;;;;;;2.83;1.20;;;;;;;8.08;75.86;99525.69;5030815;28;20286;-66
2021/12/01 04:31:07;;;;;;;1.97;0.97;;;;;;;7.96;76.15;99510.25;5028606;28;20215;-67
2021/12/01 04:33:35;;;;;;;1.87;1.00;;;;;;;8.11;75.86;99516.59;5029324;28;20219;-67
2021/12/01 04:36:03;;;;;;;2.47;1.27;;;;;;;8.13;75.38;99502.28;5027853;28;20611;-66
2021/12/01 04:38:31;;;;;;;4.70;1.00;;;;;;;8.16;75.05;99491.41;5026422;28;20221;-66
2021/12/01 04:41:00;;;;;;;3.23;1.43;;;;;;;8.02;75.54;99477.94;5019886;28;20207;-67
2021/12/01 04:43:28;;;;;;;3.03;1.00;;;;;;;8.13;75.05;99472.38;5029520;28;20248;-67
2021/12/01 04:45:59;;;;;;;4.03;1.00;;;;;;;8.29;74.38;99475.13;5024870;28;20302;-66
2021/12/01 04:48:28;;;;;;;1.57;0.70;;;;;;;8.26;74.14;99470.16;5023277;28;20220;-66
2021/12/01 04:50:56;;;;;;;3.07;1.27;;;;;;;8.29;74.20;99472.47;5029810;28;20582;-66
2021/12/01 04:53:25;;;;;;;2.27;0.97;;;;;;;8.30;74.37;99468.84;5025533;28;20236;-66
2021/12/01 04:55:54;;;;;;;1.93;1.00;;;;;;;8.30;74.51;99455.66;5026996;28;20212;-66
2021/12/01 04:58:23;;;;;;;2.83;0.90;;;;;;;8.02;75.29;99464.72;5027128;28;20304;-66
2021/12/01 05:00:51;;;;;;;1.50;0.80;;;;;;;8.28;74.55;99457.59;5026681;28;20334;-66
2021/12/01 05:03:19;;;;;;;4.73;0.90;;;;;;;8.44;73.95;99456.91;5022826;28;20208;-66
2021/12/01 05:05:51;;;;;;;2.07;0.90;;;;;;;8.32;74.22;99468.72;5027263;28;20223;-66
2021/12/01 05:08:20;;;;;;;1.80;0.73;;;;;;;8.24;74.34;99461.56;5029669;28;20298;-66
2021/12/01 05:10:48;;;;;;;3.47;1.00;;;;;;;8.29;74.28;99468.03;5027269;28;20265;-66
2021/12/01 05:13:17;;;;;;;2.13;1.10;;;;;;;8.25;74.47;99463.22;5026131;28;20207;-66
2021/12/01 05:15:47;;;;;;;3.47;1.10;;;;;;;8.27;74.46;99450.66;5025554;28;20213;-66
2021/12/01 05:18:15;;;;;;;2.90;1.27;;;;;;;8.24;74.58;99456.28;5030734;28;20278;-66
2021/12/01 05:20:43;;;;;;;2.00;1.00;;;;;;;8.21;74.88;99443.38;5030116;28;20221;-66
2021/12/01 05:23:15;;;;;;;5.10;1.50;;;;;;;8.28;74.67;99434.66;5029022;28;20232;-66
2021/12/01 05:25:44;;;;;;;2.33;1.20;;;;;;;8.13;75.08;99430.97;5025446;28;20668;-66
2021/12/01 05:28:12;;;;;;;2.10;1.00;;;;;;;8.37;74.17;99437.38;5029534;28;20212;-66
2021/12/01 05:30:40;;;;;;;3.57;1.20;;;;;;;8.30;74.25;99426.59;5029177;28;20209;-66
2021/12/01 05:33:10;;;;;;;2.53;1.10;;;;;;;8.28;74.02;99420.63;5028138;28;20266;-66
2021/12/01 05:35:45;;;;;;;2.87;1.10;;;;;;;8.32;73.91;99423.81;5025733;28;20228;-66
2021/12/01 05:38:14;;;;;;;4.03;1.83;;;;;;;8.33;73.84;99413.13;5026873;28;20220;-66
2021/12/01 05:40:43;;;;;;;3.77;1.07;;;;;;;8.17;74.39;99418.28;5024192;28;20296;-67
2021/12/01 05:43:10;;;;;;;2.57;1.20;;;;;;;8.21;74.17;99407.25;5029371;28;20698;-66
2021/12/01 05:45:39;;;;;;;1.90;1.00;;;;;;;8.39;73.48;99396.63;5027726;28;20200;-66
2021/12/01 05:48:07;;;;;;;5.20;1.00;;;;;;;8.32;73.27;99377.13;5020372;28;20238;-66
2021/12/01 05:50:36;;;;;;;3.57;1.37;;;;;;;8.16;74.16;99392.88;5025974;28;20299;-66
2021/12/01 05:53:05;;;;;;;3.97;1.10;;;;;;;8.42;73.17;99372.53;5026380;28;20307;-66
2021/12/01 05:55:33;;;;;;;4.20;1.20;;;;;;;8.40;72.75;99387.72;5012156;28;20252;-66
2021/12/01 05:58:00;;;;;;;2.03;1.07;;;;;;;8.56;72.55;99392.22;5021512;28;20297;-66
2021/12/01 06:00:28;;;;;;;3.13;1.40;;;;;;;8.38;73.21;99381.75;5024230;28;20597;-66
2021/12/01 06:02:56;;;;;;;2.53;0.93;;;;;;;8.34;73.16;99383.06;5026814;28;20243;-66
2021/12/01 06:05:25;;;;;;;2.33;1.00;;;;;;;8.28;73.42;99373.09;5022658;28;20566;-66
2021/12/01 06:07:55;;;;;;;2.40;1.13;;;;;;;8.42;72.93;99377.81;5022109;28;20658;-67
2021/12/01 06:10:23;;;;;;;2.90;1.00;;;;;;;8.48;72.67;99377.16;5029496;28;20295;-67
2021/12/01 06:12:52;;;;;;;3.80;1.30;;;;;;;8.58;72.54;99375.22;5026110;28;20296;-67
2021/12/01 06:15:20;;;;;;;3.13;0.93;;;;;;;8.57;72.59;99373.56;5024751;28;20204;-67
2021/12/01 06:17:48;;;;;;;2.27;1.10;;;;;;;8.27;73.57;99366.16;5026537;28;20664;-67
2021/12/01 06:20:16;;;;;;;3.73;1.10;;;;;;;8.58;72.54;99354.06;5026482;28;20244;-67
2021/12/01 06:22:45;;;;;;;1.60;1.00;;;;;;;8.44;73.11;99357.34;5028034;28;20328;-66
2021/12/01 06:25:14;;;;;;;2.47;1.00;;;;;;;8.51;72.46;99346.97;5026888;28;20319;-66
2021/12/01 06:27:42;;;;;;;2.60;1.20;;;;;;;8.63;72.26;99335.91;5029164;28;20215;-66
2021/12/01 06:30:12;;;;;;;2.73;1.40;;;;;;;8.57;72.65;99335.72;5030442;28;20634;-65
2021/12/01 06:32:40;;;;;;;2.17;1.10;;;;;;;8.69;72.16;99329.16;5030807;28;20628;-65
2021/12/01 06:35:08;;;;;;;2.27;1.07;;;;;;;8.61;72.58;99310.66;5029182;28;20284;-66
2021/12/01 06:37:36;;;;;;;3.20;1.20;;;;;;;8.61;72.74;99313.28;5029925;28;20320;-66
2021/12/01 06:40:05;;;;;;;2.90;1.13;;;;;;;8.56;72.83;99308.47;5027282;28;20294;-66
2021/12/01 06:42:35;;;;;;;4.50;1.40;;;;;;;8.27;73.83;99302.78;5031418;28;20316;-66
2021/12/01 06:45:06;;;;;;;1.63;1.00;;;;;;;8.49;73.31;99302.19;5015619;28;20210;-68
2021/12/01 06:47:35;;;;;;;3.70;0.90;;;;;;;8.49;73.22;99293.44;5029095;28;20208;-68
2021/12/01 06:50:04;;;;;;;1.77;0.90;;;;;;;8.49;73.23;99285.53;5031173;28;20244;-67
2021/12/01 06:52:32;;;;;;;3.43;1.00;;;;;;;8.49;73.34;99267.84;5028695;28;20209;-66
2021/12/01 06:55:00;;;;;;;1.97;0.80;;;;;;;8.39;73.65;99269.81;5025672;28;20910;-66
2021/12/01 06:57:28;;;;;;;2.70;0.87;;;;;;;8.33;74.13;99254.63;5027424;28;20534;-63
2021/12/01 06:59:57;;;;;;;1.30;0.70;;;;;;;8.29;74.42;99253.25;5023389;28;20336;-63
2021/12/01 07:02:25;;;;;;;1.83;0.83;;;;;;;8.31;74.66;99248.69;5028372;28;20752;-64
2021/12/01 07:04:54;;;;;;;1.43;0.77;;;;;;;8.29;74.68;99242.69;5029184;28;20255;-63
2021/12/01 07:07:21;;;;;;;1.27;0.63;;;;;;;8.40;74.69;99246.88;5021503;28;20645;-64
2021/12/01 07:09:51;;;;;;;1.20;0.70;;;;;;;8.30;75.33;99229.34;5022184;28;20303;-64
2021/12/01 07:12:19;;;;;;;1.87;0.70;;;;;;;8.11;77.00;99232.28;5021637;28;20209;-64
2021/12/01 07:14:47;;;;;;;1.53;0.50;;;;;;;8.25;76.40;99230.84;5023305;28;20213;-64
2021/12/01 07:17:16;;;;;;;1.60;0.80;;;;;;;8.10;77.26;99232.44;5027569;28;20220;-63
2021/12/01 07:19:44;;;;;;;1.80;0.80;;;;;;;8.08;78.52;99222.06;5022407;28;20239;-64
2021/12/01 07:22:12;;;;;;;4.73;0.90;;;;;;;8.06;78.82;99231.94;5027760;28;20220;-62
2021/12/01 07:24:41;;;;;;;4.33;0.80;;;;;;;8.08;78.79;99226.50;5019043;28;20201;-64
2021/12/01 07:27:14;;;;;;;3.03;1.00;;;;;;;8.13;78.25;99213.63;5024531;28;20296;-63
2021/12/01 07:29:43;;;;;;;2.10;0.70;;;;;;;8.07;78.67;99206.38;5028651;28;20769;-64
2021/12/01 07:32:12;;;;;;;4.87;0.80;;;;;;;7.94;79.35;99204.19;5021690;28;20208;-65
2021/12/01 07:34:42;;;;;;;1.27;0.60;;;;;;;7.75;79.78;99199.19;5027982;28;20262;-64
2021/12/01 07:37:12;;;;;;;2.57;0.83;;;;;;;7.85;80.49;99189.31;5027709;28;20239;-65
2021/12/01 07:39:40;;;;;;;1.23;0.63;;;;;;;7.88;80.44;99183.75;5028656;28;20298;-64
2021/12/01 07:42:09;;;;;;;1.47;0.70;;;;;;;7.83;80.93;99178.94;5026514;28;20255;-65
2021/12/01 07:44:37;;;;;;;2.70;0.87;;;;;;;7.77;81.44;99169.03;5029318;28;20233;-64
2021/12/01 07:47:06;;;;;;;2.83;0.97;;;;;;;7.80;81.65;99174.00;5023100;28;20671;-64
2021/12/01 07:49:34;;;;;;;7.57;0.80;;;;;;;7.72;82.04;99166.06;5025299;28;20737;-64
2021/12/01 07:52:08;;;;;;;5.00;0.87;;;;;;;7.76;82.13;99161.28;5027030;28;20688;-64
2021/12/01 07:54:37;;;;;;;2.63;0.90;;;;;;;7.71;82.93;99153.84;5023340;28;20649;-64
2021/12/01 07:57:05;;;;;;;3.90;0.90;;;;;;;7.80;82.72;99147.59;5017257;28;20214;-64
2021/12/01 07:59:33;;;;;;;1.40;0.80;;;;;;;7.72;83.49;99144.13;5029102;28;20207;-64
2021/12/01 08:02:01;;;;;;;2.27;0.80;;;;;;;7.43;85.57;99144.53;5024699;28;20663;-64
2021/12/01 08:04:29;;;;;;;2.10;1.00;;;;;;;7.47;85.23;99135.34;5017753;28;21494;-64
2021/12/01 08:06:57;;;;;;;1.90;1.00;;;;;;;7.47;86.38;99124.78;5016291;28;20305;-64
2021/12/01 08:09:27;;;;;;;1.23;0.80;;;;;;;7.52;86.54;99127.75;5024992;28;20799;-62
2021/12/01 08:11:56;;;;;;;2.27;0.90;;;;;;;7.43;87.41;99128.72;5027212;28;20204;-64
2021/12/01 08:14:24;;;;;;;3.40;0.90;;;;;;;7.22;88.52;99110.66;5027679;28;20637;-63
2021/12/01 08:16:52;;;;;;;2.60;0.87;;;;;;;7.33;88.59;99102.47;5027788;28;20242;-64
2021/12/01 08:19:21;;;;;;;5.57;0.97;;;;;;;7.32;88.70;99107.91;5026017;28;20656;-64
2021/12/01 08:21:50;;;;;;;3.70;0.83;;;;;;;7.25;89.44;99099.00;5018117;28;20806;-63
2021/12/01 08:24:20;;;;;;;1.83;0.73;;;;;;;7.38;88.68;99104.66;5019233;28;20226;-64
2021/12/01 08:26:50;;;;;;;1.93;0.93;;;;;;;7.34;88.55;99087.47;5028538;28;20262;-64
2021/12/01 08:29:18;;;;;;;1.47;0.60;;;;;;;7.40;88.75;99090.28;5025672;28;20245;-64
2021/12/01 08:31:46;;;;;;;1.73;0.70;;;;;;;7.26;89.09;99087.47;5024121;28;20226;-63
2021/12/01 08:34:14;;;;;;;1.70;0.80;;;;;;;7.36;89.69;99080.25;5025498;28;20226;-64
2021/12/01 08:36:42;;;;;;;3.10;0.80;;;;;;;7.36;89.40;99080.25;5028080;28;20843;-66
2021/12/01 08:39:10;;;;;;;3.17;0.80;;;;;;;7.48;88.85;99078.94;5026734;28;20215;-65
2021/12/01 08:41:38;;;;;;;3.10;0.70;;;;;;;7.53;88.86;99081.94;5024100;28;20249;-64
2021/12/01 08:44:08;;;;;;;2.97;1.07;;;;;;;7.44;89.06;99082.91;5019132;28;20242;-64
2021/12/01 08:46:36;;;;;;;2.20;0.73;;;;;;;7.46;89.30;99075.66;5025045;28;20333;-65
2021/12/01 08:49:04;;;;;;;1.50;0.77;;;;;;;7.29;90.06;99068.69;5015908;28;20216;-65
2021/12/01 08:51:32;;;;;;;3.83;1.00;;;;;;;7.51;89.36;99070.72;5026709;28;20302;-64
2021/12/01 08:54:00;;;;;;;3.03;0.90;;;;;;;7.50;89.51;99069.88;5025965;28;20213;-64
2021/12/01 08:56:28;;;;;;;1.70;0.90;;;;;;;7.51;89.43;99062.78;5023844;28;20230;-66
2021/12/01 08:58:56;;;;;;;2.00;0.80;;;;;;;7.58;89.63;99042.69;5026007;28;20308;-64
2021/12/01 09:01:25;;;;;;;1.03;0.60;;;;;;;7.53;89.58;99045.81;5021476;28;20337;-64
2021/12/01 09:03:54;;;;;;;3.63;0.80;;;;;;;7.58;90.11;99042.69;5025729;28;20234;-63
2021/12/01 09:06:22;;;;;;;1.80;0.73;;;;;;;7.66;89.41;99039.22;5025918;28;20226;-66
2021/12/01 09:08:50;;;;;;;3.50;0.83;;;;;;;7.66;89.38;99032.13;5026425;28;20803;-66
2021/12/01 09:11:18;;;;;;;1.57;0.53;;;;;;;7.69;89.35;99021.25;5020656;28;20834;-65
2021/12/01 09:13:46;;;;;;;2.80;0.60;;;;;;;7.68;89.19;99013.50;5029300;28;20315;-65
2021/12/01 09:16:22;;;;;;;2.50;0.50;;;;;;;7.68;90.18;99014.34;5021877;28;20705;-65
2021/12/01 09:18:52;;;;;;;2.93;0.70;;;;;;;7.60;90.38;99011.69;5025286;28;20235;-65
2021/12/01 09:21:21;;;;;;;2.03;0.50;;;;;;;7.76;89.63;99002.94;5021457;28;20223;-65
2021/12/01 09:23:49;;;;;;;1.20;0.43;;;;;;;7.85;88.95;98994.88;5022968;28;20255;-67
2021/12/01 09:26:17;;;;;;;1.43;0.67;;;;;;;7.88;89.17;98988.44;5022108;28;20241;-66
2021/12/01 09:28:45;;;;;;;3.77;0.60;;;;;;;8.00;88.57;98987.13;5027522;28;20304;-66
2021/12/01 09:31:13;;;;;;;1.27;0.60;;;;;;;8.00;88.17;98981.84;5027195;28;20627;-67
2021/12/01 09:33:41;;;;;;;1.57;0.73;;;;;;;8.13;87.38;98978.66;5028166;28;20200;-66
2021/12/01 09:36:11;;;;;;;2.00;0.73;;;;;;;8.26;86.49;98978.97;5025372;28;20354;-67
2021/12/01 09:38:39;;;;;;;1.70;0.60;;;;;;;8.15;86.81;98968.75;5013879;28;20208;-67
2021/12/01 09:41:07;;;;;;;4.23;0.80;;;;;;;8.26;86.65;98956.03;5027632;28;20223;-68
2021/12/01 09:43:34;;;;;;;1.87;0.53;;;;;;;8.37;85.62;98952.22;5025997;28;20211;-68
2021/12/01 09:46:05;;;;;;;1.70;0.70;;;;;;;8.27;86.00;98943.63;5017985;28;20298;-67
2021/12/01 09:48:34;;;;;;;1.07;0.60;;;;;;;8.37;85.88;98931.06;5015977;28;20239;-67
2021/12/01 09:51:14;;;;;;;0.90;0.40;;;;;;;8.30;86.16;98925.63;5016121;28;20725;-64
2021/12/01 09:53:42;;;;;;;1.50;0.60;;;;;;;8.52;85.35;98937.31;5027316;28;20207;-64
2021/12/01 09:56:11;;;;;;;0.90;0.40;;;;;;;8.58;85.09;98931.31;5027565;28;20284;-64
2021/12/01 09:58:39;;;;;;;1.20;0.50;;;;;;;8.65;84.43;98932.28;5028226;28;20251;-65
2021/12/01 10:01:09;;;;;;;1.40;0.70;;;;;;;8.80;83.83;98928.88;5024758;28;20326;-65
2021/12/01 10:03:39;;;;;;;1.17;0.50;;;;;;;8.72;83.65;98924.47;5021048;28;20234;-65
2021/12/01 10:06:11;;;;;;;3.20;0.90;;;;;;;8.84;83.23;98904.59;5030528;28;20263;-65
2021/12/01 10:08:43;;;;;;;3.07;1.10;;;;;;;8.85;83.39;98898.31;5025217;28;20254;-65
2021/12/01 10:11:13;;;;;;;1.13;0.57;;;;;;;8.92;83.27;98893.13;5025891;28;20209;-65
2021/12/01 10:13:44;;;;;;;1.70;0.67;;;;;;;8.88;83.37;98889.22;5028106;28;20320;-65
2021/12/01 10:16:14;;;;;;;1.40;0.50;;;;;;;8.87;83.11;98879.63;5025710;28;20270;-64
2021/12/01 10:18:43;;;;;;;2.63;1.03;;;;;;;8.88;83.03;98878.66;5032379;28;20740;-64
2021/12/01 10:21:14;;;;;;;2.00;1.00;;;;;;;8.94;82.70;98862.06;5029768;28;20752;-64
2021/12/01 10:23:47;;;;;;;2.77;0.90;;;;;;;8.89;83.15;98859.13;5029998;28;20219;-63
2021/12/01 10:26:19;;;;;;;1.87;0.80;;;;;;;8.98;82.75;98855.41;5028296;28;20247;-64
2021/12/01 10:28:49;;;;;;;0.90;0.40;;;;;;;8.96;82.91;98846.88;5027946;28;20609;-64
2021/12/01 10:31:33;;;;;;;1.53;0.40;;;;;;;8.90;83.47;98836.97;5024786;28;20258;-64
2021/12/01 10:34:27;;;;;;;0.57;0.30;;;;;;;8.99;82.77;98833.28;5031270;28;20213;-64
2021/12/01 10:37:11;;;;;;;1.23;0.40;;;;;;;9.01;82.40;98831.28;5030895;28;20322;-63
2021/12/01 10:39:42;;;;;;;0.73;0.40;;;;;;;9.03;82.29;98816.06;5027952;28;20208;-64
2021/12/01 10:42:14;;;;;;;0.40;0.20;;;;;;;9.10;82.11;98814.34;5028013;28;20681;-64
2021/12/01 10:44:55;;;;;;;0.60;0.30;;;;;;;9.16;81.99;98813.63;5025771;28;20225;-63
2021/12/01 10:47:23;;;;;;;0.90;0.40;;;;;;;9.18;82.03;98800.22;5025955;28;20633;-65
2021/12/01 10:49:51;;;;;;;1.07;0.43;;;;;;;9.14;82.10;98801.59;5031666;28;20201;-64
2021/12/01 10:52:32;;;;;;;1.00;0.30;;;;;;;9.17;81.99;98791.47;5030961;28;20227;-64
2021/12/01 10:55:08;;;;;;;2.37;0.60;;;;;;;9.18;81.75;98785.19;5030928;28;20212;-64
2021/12/01 10:57:40;;;;;;;0.60;0.30;;;;;;;9.23;81.78;98777.56;5025120;28;20287;-64
2021/12/01 11:00:17;;;;;;;1.10;0.30;;;;;;;9.30;81.79;98777.66;5027537;28;20280;-65
2021/12/01 11:02:46;;;;;;;1.03;0.40;;;;;;;9.31;81.80;98777.47;5025758;28;20304;-64
2021/12/01 11:05:27;;;;;;;2.67;0.40;;;;;;;9.36;81.67;98767.16;5018848;28;20231;-65
2021/12/01 11:07:55;;;;;;;1.07;0.40;;;;;;;9.39;81.61;98776.56;5029309;28;20526;-64
2021/12/01 11:10:26;;;;;;;1.87;0.40;;;;;;;9.34;82.24;98776.25;5026767;28;20303;-64
2021/12/01 11:12:56;;;;;;;0.77;0.47;;;;;;;9.34;83.89;98769.16;5027426;28;20208;-66
2021/12/01 11:15:27;;;;;;;3.07;0.57;;;;;;;9.38;83.52;98761.69;5024661;28;20296;-66
2021/12/01 11:17:59;;;;;;;2.83;0.43;;;;;;;9.48;82.66;98764.06;5028943;28;20668;-65
2021/12/01 11:20:36;;;;;;;1.70;0.47;;;;;;;9.40;82.20;98752.56;5030412;28;20304;-64
2021/12/01 11:23:15;;;;;;;2.30;0.40;;;;;;;9.43;81.76;98761.94;5025776;28;20255;-64
2021/12/01 11:25:49;;;;;;;1.40;0.30;;;;;;;9.46;81.68;98758.13;5027673;28;20239;-64
2021/12/01 11:28:20;;;;;;;1.10;0.40;;;;;;;9.36;81.99;98751.28;5024403;28;20743;-65
2021/12/01 11:30:50;;;;;;;1.57;0.67;;;;;;;9.36;82.39;98751.28;5027931;28;20300;-64
2021/12/01 11:33:20;;;;;;;1.20;0.43;;;;;;;9.46;81.53;98750.19;5029491;28;20215;-64
2021/12/01 11:35:50;;;;;;;4.30;0.47;;;;;;;9.50;81.35;98739.03;5026643;28;20260;-65
2021/12/01 11:38:19;;;;;;;1.43;0.57;;;;;;;9.35;82.57;98732.94;5025354;28;20306;-64
2021/12/01 11:40:50;;;;;;;2.70;0.50;;;;;;;9.30;83.28;98736.16;5028478;28;20505;-65
2021/12/01 11:43:21;;;;;;;1.23;0.43;;;;;;;9.46;82.22;98735.13;5027640;28;20218;-64
2021/12/01 11:45:49;;;;;;;5.90;0.60;;;;;;;9.46;82.43;98731.66;5026388;28;20334;-63
2021/12/01 11:48:21;;;;;;;1.37;0.57;;;;;;;9.44;82.61;98722.09;5027015;28;20201;-64
2021/12/01 11:50:56;;;;;;;1.33;0.70;;;;;;;9.49;82.75;98720.72;5028529;28;20240;-65
2021/12/01 11:53:26;;;;;;;0.73;0.30;;;;;;;9.35;83.27;98711.78;5021009;28;20295;-64
2021/12/01 11:55:59;;;;;;;1.87;0.50;;;;;;;9.44;82.66;98710.69;5025864;28;20334;-64
2021/12/01 11:58:47;;;;;;;1.07;0.47;;;;;;;9.41;82.82;98705.78;5029169;28;20291;-63